createdAt,value
2018-06-27T00:01:30.928Z,8.93
2018-06-27T00:03:59.817Z,8.37
2018-06-27T00:06:28.508Z,8.50
2018-06-27T00:08:57.296Z,9.00
2018-06-27T00:11:26.006Z,8.73
2018-06-27T00:13:54.802Z,8.90
2018-06-27T00:16:23.466Z,9.27
2018-06-27T00:18:52.252Z,9.23
2018-06-27T00:21:21.148Z,8.80
2018-06-27T00:23:49.908Z,8.90
2018-06-27T00:26:18.733Z,7.97
2018-06-27T00:28:47.569Z,9.03
2018-06-27T00:31:16.301Z,8.30
2018-06-27T00:33:45.050Z,8.73
2018-06-27T00:36:13.646Z,9.23
2018-06-27T00:38:42.420Z,8.90
2018-06-27T00:41:11.224Z,8.57
2018-06-27T00:43:39.865Z,8.83
2018-06-27T00:46:08.537Z,8.73
2018-06-27T00:48:37.362Z,8.23
2018-06-27T00:51:06.288Z,8.90
2018-06-27T00:53:40.148Z,8.37
2018-06-27T00:56:08.938Z,8.67
2018-06-27T00:58:37.633Z,9.20
2018-06-27T01:01:06.292Z,8.60
2018-06-27T01:03:35.315Z,9.63
2018-06-27T01:06:04.123Z,8.60
2018-06-27T01:08:32.762Z,9.87
2018-06-27T01:11:01.533Z,8.83
2018-06-27T01:13:30.212Z,8.67
2018-06-27T01:15:59.021Z,8.57
2018-06-27T01:18:27.796Z,8.93
2018-06-27T01:20:56.537Z,8.33
2018-06-27T01:23:25.458Z,8.97
2018-06-27T01:25:54.264Z,8.83
2018-06-27T01:28:23.084Z,8.47
2018-06-27T01:30:51.816Z,8.80
2018-06-27T01:33:20.665Z,9.20
2018-06-27T01:35:49.445Z,8.70
2018-06-27T01:38:18.202Z,8.53
2018-06-27T01:40:46.968Z,8.10
2018-06-27T01:43:15.784Z,8.73
2018-06-27T01:45:44.518Z,8.83
2018-06-27T01:48:13.233Z,8.20
2018-06-27T01:50:42.109Z,9.23
2018-06-27T01:53:10.830Z,8.73
2018-06-27T01:55:39.563Z,8.60
2018-06-27T01:58:08.254Z,8.50
2018-06-27T02:00:36.931Z,8.87
2018-06-27T02:03:05.873Z,8.47
2018-06-27T02:05:34.552Z,8.40
2018-06-27T02:08:03.321Z,9.27
2018-06-27T02:10:32.180Z,8.07
2018-06-27T02:13:00.850Z,8.57
2018-06-27T02:15:29.577Z,7.97
2018-06-27T02:17:58.335Z,8.80
2018-06-27T02:20:27.080Z,8.47
2018-06-27T02:23:01.590Z,8.53
2018-06-27T02:25:30.343Z,9.40
2018-06-27T02:27:59.329Z,8.67
2018-06-27T02:30:28.028Z,8.37
2018-06-27T02:32:56.821Z,8.43
2018-06-27T02:35:25.592Z,8.63
2018-06-27T02:37:54.356Z,8.30
2018-06-27T02:40:23.208Z,8.83
2018-06-27T02:42:52.111Z,8.47
2018-06-27T02:45:20.842Z,8.87
2018-06-27T02:47:49.652Z,9.17
2018-06-27T02:50:18.701Z,8.30
2018-06-27T02:52:47.302Z,8.50
2018-06-27T02:55:16.015Z,8.70
2018-06-27T02:57:44.843Z,8.50
2018-06-27T03:00:16.504Z,9.03
2018-06-27T03:02:46.706Z,9.83
2018-06-27T03:05:15.431Z,8.57
2018-06-27T03:07:45.118Z,8.20
2018-06-27T03:10:13.946Z,8.87
2018-06-27T03:12:42.684Z,9.00
2018-06-27T03:15:11.310Z,8.43
2018-06-27T03:17:40.122Z,8.67
2018-06-27T03:20:08.959Z,8.33
2018-06-27T03:22:37.815Z,8.37
2018-06-27T03:25:06.565Z,8.87
2018-06-27T03:27:35.510Z,9.10
2018-06-27T03:30:04.369Z,7.97
2018-06-27T03:32:33.241Z,8.40
2018-06-27T03:35:02.902Z,8.33
2018-06-27T03:37:31.772Z,8.10
2018-06-27T03:40:00.643Z,8.30
2018-06-27T03:42:29.297Z,8.97
2018-06-27T03:44:58.079Z,8.40
2018-06-27T03:47:26.743Z,7.83
2018-06-27T03:49:55.303Z,8.00
2018-06-27T03:52:24.252Z,9.17
2018-06-27T03:54:52.854Z,8.07
2018-06-27T03:57:21.439Z,8.10
2018-06-27T03:59:50.017Z,8.30
2018-06-27T04:02:18.575Z,7.70
2018-06-27T04:04:47.185Z,8.43
2018-06-27T04:07:15.749Z,7.80
2018-06-27T04:09:44.279Z,7.73
2018-06-27T04:12:12.829Z,8.40
2018-06-27T04:14:41.583Z,8.23
2018-06-27T04:17:10.084Z,7.93
2018-06-27T04:19:38.629Z,7.90
2018-06-27T04:22:07.191Z,8.33
2018-06-27T04:24:35.743Z,7.77
2018-06-27T04:27:04.316Z,7.57
2018-06-27T04:29:32.853Z,7.50
2018-06-27T04:32:01.428Z,8.20
2018-06-27T04:34:36.322Z,7.70
2018-06-27T04:37:04.921Z,8.17
2018-06-27T04:39:33.573Z,8.23
2018-06-27T04:42:02.182Z,8.87
2018-06-27T04:44:30.717Z,8.70
2018-06-27T04:46:59.285Z,8.13
2018-06-27T04:49:28.008Z,8.13
2018-06-27T04:51:56.975Z,8.60
2018-06-27T04:54:26.025Z,8.27
2018-06-27T04:56:55.613Z,8.63
2018-06-27T04:59:24.349Z,8.60
2018-06-27T05:01:53.838Z,7.87
2018-06-27T05:04:22.689Z,7.67
2018-06-27T05:06:51.460Z,8.20
2018-06-27T05:09:20.213Z,7.83
2018-06-27T05:11:49.297Z,7.90
2018-06-27T05:14:18.035Z,7.63
2018-06-27T05:16:47.429Z,7.57
2018-06-27T05:19:15.929Z,7.37
2018-06-27T05:21:44.780Z,7.73
2018-06-27T05:24:13.374Z,7.37
2018-06-27T05:26:41.961Z,8.53
2018-06-27T05:29:10.601Z,7.80
2018-06-27T05:31:39.129Z,7.47
2018-06-27T05:34:07.875Z,7.20
2018-06-27T05:36:36.477Z,7.90
2018-06-27T05:39:08.341Z,7.40
2018-06-27T05:41:37.033Z,7.13
2018-06-27T05:44:05.718Z,7.20
2018-06-27T05:46:34.453Z,6.60
2018-06-27T05:49:03.130Z,7.07
2018-06-27T05:51:31.848Z,7.23
2018-06-27T05:54:00.532Z,7.10
2018-06-27T05:56:29.185Z,7.40
2018-06-27T05:58:57.925Z,7.40
2018-06-27T06:01:26.588Z,6.77
2018-06-27T06:03:55.369Z,7.27
2018-06-27T06:06:24.062Z,7.40
2018-06-27T06:08:52.814Z,6.73
2018-06-27T06:11:21.577Z,7.07
2018-06-27T06:13:50.236Z,6.77
2018-06-27T06:16:18.952Z,6.57
2018-06-27T06:18:47.696Z,6.60
2018-06-27T06:21:16.385Z,6.70
2018-06-27T06:23:45.069Z,7.13
2018-06-27T06:26:13.715Z,6.57
2018-06-27T06:28:42.825Z,6.70
2018-06-27T06:31:11.460Z,7.03
2018-06-27T06:33:40.101Z,6.50
2018-06-27T06:36:08.807Z,6.50
2018-06-27T06:38:37.419Z,6.57
2018-06-27T06:41:06.456Z,6.30
2018-06-27T06:43:35.300Z,6.20
2018-06-27T06:46:03.949Z,6.10
2018-06-27T06:48:32.706Z,6.77
2018-06-27T06:51:01.448Z,6.13
2018-06-27T06:53:30.188Z,6.77
2018-06-27T06:55:58.905Z,6.70
2018-06-27T06:58:27.546Z,6.40
2018-06-27T07:00:56.323Z,6.17
2018-06-27T07:03:25.114Z,6.20
2018-06-27T07:05:53.909Z,5.77
2018-06-27T07:08:22.706Z,6.10
2018-06-27T07:10:51.587Z,5.90
2018-06-27T07:13:20.408Z,6.37
2018-06-27T07:15:49.283Z,6.30
2018-06-27T07:18:17.980Z,6.03
2018-06-27T07:20:46.618Z,5.80
2018-06-27T07:23:15.292Z,5.97
2018-06-27T07:25:43.981Z,5.83
2018-06-27T07:28:13.037Z,5.70
2018-06-27T07:30:41.906Z,5.83
2018-06-27T07:33:10.890Z,5.97
2018-06-27T07:35:39.797Z,5.30
2018-06-27T07:38:08.711Z,5.73
2018-06-27T07:40:37.807Z,5.93
2018-06-27T07:43:06.681Z,5.70
2018-06-27T07:45:35.414Z,5.60
2018-06-27T07:48:04.215Z,5.83
2018-06-27T07:50:33.090Z,5.97
2018-06-27T07:53:01.910Z,5.83
2018-06-27T07:55:30.878Z,6.07
2018-06-27T07:57:59.889Z,5.83
2018-06-27T08:00:28.644Z,6.10
2018-06-27T08:02:57.317Z,5.03
2018-06-27T08:05:26.029Z,5.10
2018-06-27T08:07:54.754Z,5.63
2018-06-27T08:10:23.358Z,5.77
2018-06-27T08:12:51.940Z,5.77
2018-06-27T08:15:20.641Z,5.63
2018-06-27T08:17:49.351Z,6.23
2018-06-27T08:20:18.013Z,5.53
2018-06-27T08:22:46.740Z,5.73
2018-06-27T08:25:15.516Z,5.33
2018-06-27T08:27:44.210Z,5.40
2018-06-27T08:30:12.840Z,5.50
2018-06-27T08:32:41.528Z,5.70
2018-06-27T08:35:10.292Z,5.13
2018-06-27T08:37:38.955Z,5.30
2018-06-27T08:40:07.669Z,5.60
2018-06-27T08:42:36.441Z,5.30
2018-06-27T08:45:05.205Z,5.50
2018-06-27T08:47:34.029Z,5.10
2018-06-27T08:50:02.762Z,5.60
2018-06-27T08:52:31.417Z,5.57
2018-06-27T08:55:00.083Z,5.40
2018-06-27T08:57:28.789Z,5.33
2018-06-27T08:59:57.621Z,5.43
2018-06-27T09:02:26.406Z,5.17
2018-06-27T09:04:55.237Z,5.20
2018-06-27T09:07:23.917Z,5.40
2018-06-27T09:09:52.531Z,5.27
2018-06-27T09:12:21.330Z,5.40
2018-06-27T09:14:49.909Z,5.20
2018-06-27T09:17:18.714Z,5.10
2018-06-27T09:19:47.406Z,5.00
2018-06-27T09:22:16.124Z,4.93
2018-06-27T09:24:44.761Z,4.77
2018-06-27T09:27:13.520Z,5.37
2018-06-27T09:29:42.307Z,4.67
2018-06-27T09:32:10.938Z,5.17
2018-06-27T09:34:39.861Z,4.80
2018-06-27T09:37:08.810Z,4.77
2018-06-27T09:39:37.520Z,4.80
2018-06-27T09:42:06.238Z,4.83
2018-06-27T09:44:34.876Z,4.93
2018-06-27T09:47:03.590Z,5.20
2018-06-27T09:49:32.185Z,5.17
2018-06-27T09:52:00.870Z,4.43
2018-06-27T09:54:29.617Z,4.60
2018-06-27T09:56:58.251Z,5.10
2018-06-27T09:59:26.937Z,5.07
2018-06-27T10:01:55.610Z,4.73
2018-06-27T10:04:24.214Z,4.60
2018-06-27T10:06:52.792Z,4.50
2018-06-27T10:09:21.530Z,5.07
2018-06-27T10:11:50.146Z,4.60
2018-06-27T10:14:18.890Z,4.33
2018-06-27T10:16:47.818Z,4.67
2018-06-27T10:19:16.449Z,4.57
2018-06-27T10:21:45.109Z,4.80
2018-06-27T10:24:13.933Z,5.00
2018-06-27T10:26:42.571Z,4.17
2018-06-27T10:29:11.247Z,4.37
2018-06-27T10:31:40.063Z,4.57
2018-06-27T10:34:08.859Z,4.40
2018-06-27T10:36:37.490Z,4.50
2018-06-27T10:39:09.022Z,4.60
2018-06-27T10:41:37.709Z,4.00
2018-06-27T10:44:06.401Z,4.43
2018-06-27T10:46:35.472Z,4.30
2018-06-27T10:49:04.732Z,4.07
2018-06-27T10:51:33.659Z,4.60
2018-06-27T10:54:02.717Z,4.67
2018-06-27T10:56:31.801Z,4.00
2018-06-27T10:59:00.683Z,4.57
2018-06-27T11:01:29.624Z,4.50
2018-06-27T11:03:58.456Z,4.57
2018-06-27T11:06:27.361Z,4.47
2018-06-27T11:08:56.312Z,4.10
2018-06-27T11:11:24.967Z,4.10
2018-06-27T11:13:53.612Z,3.80
2018-06-27T11:16:22.297Z,4.37
2018-06-27T11:18:51.024Z,3.93
2018-06-27T11:21:19.893Z,3.93
2018-06-27T11:23:48.597Z,4.37
2018-06-27T11:26:17.252Z,4.10
2018-06-27T11:28:45.963Z,4.20
2018-06-27T11:31:14.683Z,3.77
2018-06-27T11:33:43.362Z,4.10
2018-06-27T11:36:12.190Z,4.03
2018-06-27T11:38:41.051Z,4.13
2018-06-27T11:41:09.783Z,4.00
2018-06-27T11:43:38.622Z,4.70
2018-06-27T11:46:08.160Z,3.87
2018-06-27T11:48:37.170Z,3.97
2018-06-27T11:51:06.004Z,4.20
2018-06-27T11:53:35.090Z,3.93
2018-06-27T11:56:04.143Z,3.90
2018-06-27T11:58:33.042Z,4.00
2018-06-27T12:01:02.589Z,4.00
2018-06-27T12:03:31.406Z,4.10
2018-06-27T12:06:00.350Z,4.40
2018-06-27T12:08:29.530Z,3.90
2018-06-27T12:10:58.401Z,4.10
2018-06-27T12:13:27.322Z,4.23
2018-06-27T12:15:56.164Z,4.07
2018-06-27T12:18:24.981Z,4.10
2018-06-27T12:20:53.691Z,3.90
2018-06-27T12:23:22.606Z,4.03
2018-06-27T12:25:51.509Z,3.57
2018-06-27T12:28:20.270Z,3.60
2018-06-27T12:30:49.043Z,3.93
2018-06-27T12:33:17.794Z,3.87
2018-06-27T12:35:46.563Z,3.93
2018-06-27T12:38:15.349Z,4.00
2018-06-27T12:40:44.159Z,4.10
2018-06-27T12:43:12.985Z,4.03
2018-06-27T12:45:41.832Z,3.93
2018-06-27T12:48:10.508Z,3.63
2018-06-27T12:50:39.557Z,4.00
2018-06-27T12:53:08.401Z,3.73
2018-06-27T12:55:37.137Z,3.87
2018-06-27T12:58:06.020Z,3.50
2018-06-27T13:00:34.863Z,4.00
2018-06-27T13:03:03.766Z,3.93
2018-06-27T13:05:32.509Z,3.70
2018-06-27T13:08:01.379Z,3.70
2018-06-27T13:10:30.165Z,4.07
2018-06-27T13:12:59.031Z,3.70
2018-06-27T13:15:27.769Z,3.43
2018-06-27T13:17:56.453Z,3.77
2018-06-27T13:20:25.172Z,3.53
2018-06-27T13:22:53.828Z,3.50
2018-06-27T13:25:22.505Z,3.40
2018-06-27T13:27:51.151Z,3.77
2018-06-27T13:30:19.806Z,3.47
2018-06-27T13:32:48.477Z,3.40
2018-06-27T13:35:17.150Z,3.70
2018-06-27T13:37:45.831Z,4.07
2018-06-27T13:40:14.426Z,4.00
2018-06-27T13:42:43.106Z,3.70
2018-06-27T13:45:12.119Z,3.70
2018-06-27T13:47:40.753Z,3.77
2018-06-27T13:50:09.487Z,4.00
2018-06-27T13:52:38.280Z,3.77
2018-06-27T13:55:07.004Z,3.67
2018-06-27T13:57:35.691Z,3.83
2018-06-27T14:00:04.825Z,3.40
2018-06-27T14:02:33.524Z,3.60
2018-06-27T14:05:02.259Z,3.40
2018-06-27T14:07:30.928Z,3.50
2018-06-27T14:09:59.458Z,3.93
2018-06-27T14:12:27.997Z,3.40
2018-06-27T14:14:56.525Z,3.37
2018-06-27T14:17:25.046Z,3.30
2018-06-27T14:19:53.617Z,3.40
2018-06-27T14:22:22.140Z,3.40
2018-06-27T14:24:50.685Z,3.47
2018-06-27T14:27:19.287Z,3.87
2018-06-27T14:29:47.853Z,3.50
2018-06-27T14:32:16.392Z,3.70
2018-06-27T14:34:44.913Z,3.40
2018-06-27T14:37:13.481Z,3.43
2018-06-27T14:39:42.016Z,3.90
2018-06-27T14:42:10.540Z,3.57
2018-06-27T14:44:39.145Z,3.77
2018-06-27T14:47:07.704Z,3.47
2018-06-27T14:49:36.222Z,3.50
2018-06-27T14:52:04.860Z,3.50
2018-06-27T14:54:33.377Z,3.23
2018-06-27T14:57:01.904Z,3.40
2018-06-27T14:59:30.500Z,3.60
2018-06-27T15:01:59.068Z,3.30
2018-06-27T15:04:27.590Z,3.00
2018-06-27T15:06:56.116Z,3.47
2018-06-27T15:09:24.649Z,3.67
2018-06-27T15:11:53.181Z,3.30
2018-06-27T15:14:21.725Z,3.60
2018-06-27T15:16:50.332Z,3.67
2018-06-27T15:19:18.834Z,3.40
2018-06-27T15:21:47.441Z,3.17
2018-06-27T15:24:16.000Z,3.07
2018-06-27T15:26:44.571Z,3.20
2018-06-27T15:29:13.112Z,3.40
2018-06-27T15:31:41.645Z,3.50
2018-06-27T15:34:10.261Z,3.47
2018-06-27T15:36:38.708Z,3.20
2018-06-27T15:39:08.639Z,3.40
2018-06-27T15:41:37.262Z,3.03
2018-06-27T15:44:06.305Z,3.43
2018-06-27T15:46:34.921Z,3.67
2018-06-27T15:49:03.518Z,3.30
2018-06-27T15:51:32.075Z,3.37
2018-06-27T15:54:00.619Z,3.43
2018-06-27T15:56:29.137Z,2.80
2018-06-27T15:58:57.683Z,2.93
2018-06-27T16:01:26.185Z,2.90
2018-06-27T16:03:54.736Z,3.20
2018-06-27T16:06:23.331Z,3.17
2018-06-27T16:08:51.824Z,3.20
2018-06-27T16:11:20.488Z,3.33
2018-06-27T16:13:48.954Z,3.23
2018-06-27T16:16:17.486Z,3.17
2018-06-27T16:18:46.050Z,3.60
2018-06-27T16:21:14.637Z,3.30
2018-06-27T16:23:43.149Z,3.10
2018-06-27T16:26:11.661Z,3.23
2018-06-27T16:28:40.245Z,3.20
2018-06-27T16:31:08.769Z,3.70
2018-06-27T16:33:37.578Z,3.00
2018-06-27T16:36:06.234Z,3.20
2018-06-27T16:38:34.765Z,3.10
2018-06-27T16:41:03.337Z,3.30
2018-06-27T16:43:32.059Z,3.20
2018-06-27T16:46:00.460Z,3.13
2018-06-27T16:48:28.987Z,3.40
2018-06-27T16:50:57.623Z,3.20
2018-06-27T16:53:26.055Z,3.30
2018-06-27T16:55:54.589Z,3.00
2018-06-27T16:58:23.141Z,3.13
2018-06-27T17:00:51.697Z,3.07
2018-06-27T17:03:20.208Z,3.27
2018-06-27T17:05:48.790Z,3.33
2018-06-27T17:08:17.296Z,2.77
2018-06-27T17:10:45.848Z,2.70
2018-06-27T17:13:14.402Z,2.60
2018-06-27T17:15:43.294Z,3.10
2018-06-27T17:18:11.853Z,2.90
2018-06-27T17:20:40.469Z,3.00
2018-06-27T17:23:08.981Z,3.17
2018-06-27T17:25:37.516Z,3.20
2018-06-27T17:28:06.772Z,3.10
2018-06-27T17:30:35.301Z,3.07
2018-06-27T17:33:03.816Z,2.77
2018-06-27T17:35:32.422Z,2.70
2018-06-27T17:38:00.987Z,2.80
2018-06-27T17:40:29.514Z,3.10
2018-06-27T17:42:58.095Z,2.87
2018-06-27T17:45:26.665Z,2.80
2018-06-27T17:47:55.761Z,2.63
2018-06-27T17:50:24.508Z,3.00
2018-06-27T17:52:53.177Z,2.70
2018-06-27T17:55:22.042Z,3.30
2018-06-27T17:57:50.797Z,2.80
2018-06-27T18:00:19.458Z,2.70
2018-06-27T18:02:48.094Z,2.90
2018-06-27T18:05:16.978Z,3.10
2018-06-27T18:07:45.768Z,2.60
2018-06-27T18:10:14.519Z,2.63
2018-06-27T18:12:43.292Z,2.73
2018-06-27T18:15:12.124Z,2.70
2018-06-27T18:17:40.888Z,3.00
2018-06-27T18:20:09.653Z,2.87
2018-06-27T18:22:38.379Z,2.67
2018-06-27T18:25:07.185Z,3.13
2018-06-27T18:27:36.101Z,2.63
2018-06-27T18:30:05.273Z,2.90
2018-06-27T18:32:34.168Z,2.73
2018-06-27T18:35:02.840Z,2.73
2018-06-27T18:37:31.514Z,2.50
2018-06-27T18:40:00.137Z,2.60
2018-06-27T18:42:28.890Z,2.73
2018-06-27T18:44:57.637Z,3.00
2018-06-27T18:47:26.340Z,2.93
2018-06-27T18:49:55.001Z,2.90
2018-06-27T18:52:23.741Z,2.90
2018-06-27T18:54:52.637Z,2.93
2018-06-27T18:57:21.511Z,2.60
2018-06-27T18:59:50.199Z,2.77
2018-06-27T19:02:19.041Z,2.87
2018-06-27T19:04:47.832Z,2.70
2018-06-27T19:07:16.697Z,2.93
2018-06-27T19:09:45.314Z,2.80
2018-06-27T19:12:14.094Z,2.90
2018-06-27T19:14:42.722Z,2.73
2018-06-27T19:17:11.345Z,3.03
2018-06-27T19:19:40.060Z,2.90
2018-06-27T19:22:08.623Z,2.83
2018-06-27T19:24:38.404Z,2.90
2018-06-27T19:27:07.165Z,2.90
2018-06-27T19:29:35.970Z,2.70
2018-06-27T19:32:04.765Z,2.70
2018-06-27T19:34:33.568Z,2.90
2018-06-27T19:37:02.307Z,3.07
2018-06-27T19:39:37.457Z,2.70
2018-06-27T19:41:59.650Z,2.80
2018-06-27T19:44:28.291Z,2.87
2018-06-27T19:46:57.695Z,2.63
2018-06-27T19:49:26.369Z,2.63
2018-06-27T19:51:55.842Z,2.80
2018-06-27T19:54:24.480Z,2.80
2018-06-27T19:56:53.412Z,2.90
2018-06-27T19:59:22.027Z,2.90
2018-06-27T20:01:50.669Z,2.97
2018-06-27T20:04:19.476Z,3.10
2018-06-27T20:06:48.198Z,3.20
2018-06-27T20:09:16.790Z,2.80
2018-06-27T20:11:45.620Z,2.97
2018-06-27T20:14:14.573Z,2.80
2018-06-27T20:16:43.355Z,2.40
2018-06-27T20:19:12.104Z,2.83
2018-06-27T20:21:40.780Z,2.97
2018-06-27T20:24:09.491Z,2.70
2018-06-27T20:26:38.373Z,2.87
2018-06-27T20:29:07.299Z,3.30
2018-06-27T20:31:35.974Z,2.87
2018-06-27T20:34:05.526Z,3.00
2018-06-27T20:36:34.166Z,2.90
2018-06-27T20:39:03.028Z,3.00
2018-06-27T20:41:31.733Z,3.10
2018-06-27T20:44:00.340Z,2.50
2018-06-27T20:46:28.999Z,2.70
2018-06-27T20:48:57.672Z,3.20
2018-06-27T20:51:26.397Z,2.93
2018-06-27T20:53:55.006Z,2.93
2018-06-27T20:56:23.767Z,2.77
2018-06-27T20:58:52.585Z,2.53
2018-06-27T21:01:21.184Z,2.70
2018-06-27T21:03:50.116Z,3.10
2018-06-27T21:06:18.803Z,3.17
2018-06-27T21:08:47.920Z,2.80
2018-06-27T21:11:16.620Z,2.83
2018-06-27T21:13:45.428Z,3.00
2018-06-27T21:16:14.113Z,2.80
2018-06-27T21:18:42.841Z,2.93
2018-06-27T21:21:11.436Z,2.80
2018-06-27T21:23:40.128Z,2.80
2018-06-27T21:26:08.893Z,2.93
2018-06-27T21:28:37.778Z,3.10
2018-06-27T21:31:06.752Z,2.93
2018-06-27T21:33:35.564Z,3.47
2018-06-27T21:36:04.364Z,2.77
2018-06-27T21:38:33.170Z,3.00
2018-06-27T21:41:02.082Z,2.73
2018-06-27T21:43:30.837Z,3.20
2018-06-27T21:45:59.624Z,2.97
2018-06-27T21:48:28.274Z,2.97
2018-06-27T21:50:56.978Z,3.03
2018-06-27T21:53:25.677Z,2.70
2018-06-27T21:55:54.501Z,3.03
2018-06-27T21:58:23.352Z,2.80
2018-06-27T22:00:52.098Z,2.77
2018-06-27T22:03:20.789Z,2.80
2018-06-27T22:05:49.878Z,3.00
2018-06-27T22:08:18.994Z,2.83
2018-06-27T22:10:47.695Z,2.80
2018-06-27T22:13:16.322Z,3.37
2018-06-27T22:15:44.927Z,2.80
2018-06-27T22:18:13.860Z,2.97
2018-06-27T22:20:42.721Z,2.70
2018-06-27T22:23:11.412Z,2.57
2018-06-27T22:25:40.304Z,2.93
2018-06-27T22:28:08.936Z,2.70
2018-06-27T22:30:37.831Z,2.90
2018-06-27T22:33:06.786Z,2.83
2018-06-27T22:35:35.503Z,2.80
2018-06-27T22:38:04.911Z,3.40
2018-06-27T22:40:33.933Z,3.10
2018-06-27T22:43:08.971Z,3.17
2018-06-27T22:45:37.828Z,3.07
2018-06-27T22:48:07.558Z,2.83
2018-06-27T22:50:36.280Z,2.83
2018-06-27T22:53:05.134Z,2.90
2018-06-27T22:55:33.840Z,2.90
2018-06-27T22:58:02.704Z,2.90
2018-06-27T23:00:31.929Z,2.80
2018-06-27T23:03:00.749Z,2.80
2018-06-27T23:05:29.466Z,2.87
2018-06-27T23:07:58.119Z,2.77
2018-06-27T23:10:27.026Z,2.70
2018-06-27T23:12:56.545Z,2.60
2018-06-27T23:15:25.210Z,2.90
2018-06-27T23:17:53.987Z,3.17
2018-06-27T23:20:22.836Z,2.90
2018-06-27T23:22:51.589Z,2.80
2018-06-27T23:25:20.373Z,2.70
2018-06-27T23:27:49.026Z,2.63
2018-06-27T23:30:17.894Z,3.10
2018-06-27T23:32:46.993Z,2.70
2018-06-27T23:35:15.773Z,2.63
2018-06-27T23:37:44.638Z,2.80
2018-06-27T23:40:13.361Z,2.93
2018-06-27T23:42:42.202Z,3.10
2018-06-27T23:45:10.958Z,2.87
2018-06-27T23:47:39.916Z,3.00
2018-06-27T23:50:08.750Z,2.40
2018-06-27T23:52:37.382Z,2.80
2018-06-27T23:55:06.167Z,3.03
2018-06-27T23:57:34.953Z,2.53
